Date,TemperatureHighF,TemperatureAvgF,TemperatureLowF,DewpointHighF,DewpointAvgF,DewpointLowF,HumidityHigh,HumidityAvg,HumidityLow,PressureMaxIn,PressureMinIn,WindSpeedMaxMPH,WindSpeedAvgMPH,GustSpeedMaxMPH,PrecipitationSumIn
2013-8-1,79.1,69.0,60.9,69.1,64.4,60.6,100,86,64,30.01,29.84,6,1,8,0.00
2013-8-2,83.3,71.9,64.4,70.9,66.0,63.3,100,83,54,29.84,29.76,3,0,6,0.30
2013-8-3,78.7,70.3,63.5,67.9,65.1,62.0,98,84,65,29.83,29.75,2,0,4,0.00
2013-8-4,79.8,67.5,57.0,63.6,59.9,56.2,99,79,51,29.85,29.73,3,0,6,0.01
2013-8-5,75.7,64.2,53.6,57.3,53.2,49.3,97,71,40,30.01,29.85,4,1,10,0.00
2013-8-6,78.7,64.9,49.1,59.1,55.1,48.6,99,74,46,30.11,30.01,2,0,4,0.00
2013-8-7,78.4,66.4,53.4,64.6,57.9,52.8,100,77,42,30.15,30.08,4,1,10,0.00
2013-8-8,78.9,71.3,63.8,73.2,68.5,59.8,99,91,82,30.09,29.97,2,0,6,0.29
2013-8-9,75.5,73.0,70.9,75.5,72.5,70.8,100,98,95,29.99,29.72,6,1,16,1.29
2013-8-10,82.4,73.5,60.0,73.5,65.5,57.4,100,78,50,29.97,29.75,4,1,9,0.01
2013-8-11,79.0,66.2,53.1,62.6,58.1,52.8,99,78,51,30.05,29.97,2,0,5,0.00
2013-8-12,83.1,70.5,59.3,66.5,62.6,58.4,99,79,50,30.00,29.88,2,0,4,0.00
2013-8-13,72.6,67.5,63.1,69.7,65.6,62.5,99,94,81,29.89,29.65,3,0,4,0.00
2013-8-14,73.3,66.0,59.5,64.7,57.5,52.1,100,75,58,29.93,29.63,5,1,14,0.00
2013-8-15,76.5,64.5,51.8,58.9,55.5,51.0,98,75,49,30.08,29.93,3,0,5,0.00
2013-8-16,80.0,66.4,53.3,62.2,58.1,52.8,99,77,48,30.16,30.08,2,0,6,0.00
2013-8-17,79.8,68.2,54.2,65.2,60.5,53.6,99,78,55,30.24,30.16,3,0,4,0.00
2013-8-18,79.5,67.6,57.8,68.3,61.9,57.2,99,84,51,30.24,30.05,3,0,8,0.00
2013-8-19,82.4,70.1,58.2,67.0,62.9,57.6,100,80,51,30.05,29.92,1,0,2,0.00
2013-8-20,85.7,73.7,60.9,68.7,65.2,60.3,99,77,48,30.05,29.94,1,0,5,0.00
2013-8-21,88.0,74.7,61.7,71.3,66.9,61.3,99,79,52,30.10,29.99,1,0,4,0.00
2013-8-22,84.5,73.7,64.2,74.7,69.8,63.9,100,88,69,30.00,29.79,2,0,5,0.00
2013-8-23,80.0,72.4,61.7,70.5,64.3,56.3,99,77,51,30.07,29.78,4,1,10,0.00
2013-8-24,76.1,65.3,53.9,57.2,53.7,51.4,95,69,44,30.30,30.08,3,0,5,0.00
2013-8-25,82.5,67.4,51.2,62.4,57.1,50.9,100,73,44,30.33,30.16,2,0,6,0.00
2013-8-26,78.4,70.4,63.7,69.8,64.6,59.2,93,82,70,30.16,29.84,2,0,5,0.00
2013-8-27,81.3,72.1,65.3,73.5,69.4,65.0,100,92,74,29.85,29.79,2,0,4,0.18
2013-8-28,85.1,72.4,60.9,72.5,66.9,60.9,100,85,57,29.93,29.81,3,0,6,0.00
2013-8-29,67.0,64.2,61.0,66.3,63.3,59.3,100,97,93,30.03,29.91,2,0,6,0.00
2013-8-30,81.3,69.4,60.9,71.4,65.6,59.6,97,88,71,29.99,29.80,1,0,4,0.00
2013-8-31,79.5,73.9,68.1,75.1,72.1,68.1,100,94,86,29.80,29.75,1,0,4,0.00